sensor_id;sensor_type;location;lat;lon;timestamp;temperature;humidity
32394;DHT22;18853;45.426;9.206;2023-03-01T00:01:26;12.30;47.20
32394;DHT22;18853;45.426;9.206;2023-03-01T00:03:53;12.30;47.30
32394;DHT22;18853;45.426;9.206;2023-03-01T00:06:20;12.30;47.30
32394;DHT22;18853;45.426;9.206;2023-03-01T00:08:46;12.30;47.40
32394;DHT22;18853;45.426;9.206;2023-03-01T00:11:17;12.30;47.50
32394;DHT22;18853;45.426;9.206;2023-03-01T00:13:44;12.30;47.50
32394;DHT22;18853;45.426;9.206;2023-03-01T00:16:13;12.30;47.60
32394;DHT22;18853;45.426;9.206;2023-03-01T00:18:40;12.30;47.60
32394;DHT22;18853;45.426;9.206;2023-03-01T00:21:06;12.20;47.70
32394;DHT22;18853;45.426;9.206;2023-03-01T00:23:33;12.20;47.70
32394;DHT22;18853;45.426;9.206;2023-03-01T00:25:59;12.20;47.70
32394;DHT22;18853;45.426;9.206;2023-03-01T00:28:24;12.20;47.70
32394;DHT22;18853;45.426;9.206;2023-03-01T00:30:50;12.20;47.80
32394;DHT22;18853;45.426;9.206;2023-03-01T00:33:16;12.20;47.70
32394;DHT22;18853;45.426;9.206;2023-03-01T00:35:41;12.10;47.50
32394;DHT22;18853;45.426;9.206;2023-03-01T00:38:08;12.20;47.50
32394;DHT22;18853;45.426;9.206;2023-03-01T00:40:35;12.10;47.40
32394;DHT22;18853;45.426;9.206;2023-03-01T00:43:01;12.10;47.60
32394;DHT22;18853;45.426;9.206;2023-03-01T00:45:27;12.10;47.60
32394;DHT22;18853;45.426;9.206;2023-03-01T00:47:53;12.00;47.60
32394;DHT22;18853;45.426;9.206;2023-03-01T00:50:19;12.00;47.70
32394;DHT22;18853;45.426;9.206;2023-03-01T00:52:45;12.00;47.70
32394;DHT22;18853;45.426;9.206;2023-03-01T00:55:11;12.00;47.80
32394;DHT22;18853;45.426;9.206;2023-03-01T00:57:37;12.00;47.80
32394;DHT22;18853;45.426;9.206;2023-03-01T01:00:05;12.00;47.70
32394;DHT22;18853;45.426;9.206;2023-03-01T01:02:33;12.00;47.80
32394;DHT22;18853;45.426;9.206;2023-03-01T01:04:59;12.00;47.90
32394;DHT22;18853;45.426;9.206;2023-03-01T01:07:24;12.00;48.00
32394;DHT22;18853;45.426;9.206;2023-03-01T01:09:50;11.90;48.10
32394;DHT22;18853;45.426;9.206;2023-03-01T01:12:15;11.90;48.10
32394;DHT22;18853;45.426;9.206;2023-03-01T01:14:41;12.00;48.20
32394;DHT22;18853;45.426;9.206;2023-03-01T01:17:07;11.90;48.20
32394;DHT22;18853;45.426;9.206;2023-03-01T01:19:32;12.00;48.20
32394;DHT22;18853;45.426;9.206;2023-03-01T01:21:58;11.90;48.30
32394;DHT22;18853;45.426;9.206;2023-03-01T01:24:24;11.90;48.40
32394;DHT22;18853;45.426;9.206;2023-03-01T01:26:49;11.90;48.50
32394;DHT22;18853;45.426;9.206;2023-03-01T01:29:15;11.90;48.60
32394;DHT22;18853;45.426;9.206;2023-03-01T01:31:42;11.90;48.70
32394;DHT22;18853;45.426;9.206;2023-03-01T01:34:13;11.80;48.50
32394;DHT22;18853;45.426;9.206;2023-03-01T01:36:39;11.80;48.60
32394;DHT22;18853;45.426;9.206;2023-03-01T01:39:05;11.70;48.60
32394;DHT22;18853;45.426;9.206;2023-03-01T01:41:31;11.70;48.60
32394;DHT22;18853;45.426;9.206;2023-03-01T01:44:29;11.70;48.80
32394;DHT22;18853;45.426;9.206;2023-03-01T01:47:06;11.80;48.70
32394;DHT22;18853;45.426;9.206;2023-03-01T01:49:52;11.70;48.80
32394;DHT22;18853;45.426;9.206;2023-03-01T01:55:11;11.50;48.70
32394;DHT22;18853;45.426;9.206;2023-03-01T01:57:39;11.60;48.90
32394;DHT22;18853;45.426;9.206;2023-03-01T02:00:14;11.70;48.60
32394;DHT22;18853;45.426;9.206;2023-03-01T02:02:42;11.70;48.40
32394;DHT22;18853;45.426;9.206;2023-03-01T02:05:17;11.70;48.30
32394;DHT22;18853;45.426;9.206;2023-03-01T02:07:46;11.70;48.10
32394;DHT22;18853;45.426;9.206;2023-03-01T02:10:13;11.60;48.10
32394;DHT22;18853;45.426;9.206;2023-03-01T02:12:39;11.60;48.10
32394;DHT22;18853;45.426;9.206;2023-03-01T02:15:05;11.60;48.20
32394;DHT22;18853;45.426;9.206;2023-03-01T02:17:32;11.70;48.90
32394;DHT22;18853;45.426;9.206;2023-03-01T02:20:19;11.70;48.30
32394;DHT22;18853;45.426;9.206;2023-03-01T02:22:47;11.70;48.20
32394;DHT22;18853;45.426;9.206;2023-03-01T02:30:41;11.80;47.90
32394;DHT22;18853;45.426;9.206;2023-03-01T02:33:28;11.60;48.10
32394;DHT22;18853;45.426;9.206;2023-03-01T02:36:00;11.70;48.20
32394;DHT22;18853;45.426;9.206;2023-03-01T02:38:27;11.70;48.00
32394;DHT22;18853;45.426;9.206;2023-03-01T02:40:54;11.80;47.80
32394;DHT22;18853;45.426;9.206;2023-03-01T02:43:25;11.80;47.80
32394;DHT22;18853;45.426;9.206;2023-03-01T02:45:53;11.80;47.70
32394;DHT22;18853;45.426;9.206;2023-03-01T02:48:22;11.80;47.70
32394;DHT22;18853;45.426;9.206;2023-03-01T02:51:30;11.90;47.60
32394;DHT22;18853;45.426;9.206;2023-03-01T02:54:16;11.90;47.40
32394;DHT22;18853;45.426;9.206;2023-03-01T02:56:44;11.90;47.40
32394;DHT22;18853;45.426;9.206;2023-03-01T02:59:10;11.80;47.40
32394;DHT22;18853;45.426;9.206;2023-03-01T03:01:36;11.90;47.40
32394;DHT22;18853;45.426;9.206;2023-03-01T03:04:07;11.90;47.40
32394;DHT22;18853;45.426;9.206;2023-03-01T03:06:34;11.80;47.40
32394;DHT22;18853;45.426;9.206;2023-03-01T03:09:00;11.80;47.40
32394;DHT22;18853;45.426;9.206;2023-03-01T03:11:26;11.80;47.40
32394;DHT22;18853;45.426;9.206;2023-03-01T03:13:52;11.80;47.50
32394;DHT22;18853;45.426;9.206;2023-03-01T03:16:18;11.70;47.60
32394;DHT22;18853;45.426;9.206;2023-03-01T03:18:44;11.80;47.60
32394;DHT22;18853;45.426;9.206;2023-03-01T03:21:11;11.70;47.70
32394;DHT22;18853;45.426;9.206;2023-03-01T03:23:38;11.70;47.70
32394;DHT22;18853;45.426;9.206;2023-03-01T03:26:04;11.60;47.70
32394;DHT22;18853;45.426;9.206;2023-03-01T03:28:31;11.60;47.70
32394;DHT22;18853;45.426;9.206;2023-03-01T03:30:57;11.60;47.90
32394;DHT22;18853;45.426;9.206;2023-03-01T03:33:23;11.60;47.90
32394;DHT22;18853;45.426;9.206;2023-03-01T03:35:50;11.50;48.00
32394;DHT22;18853;45.426;9.206;2023-03-01T03:38:18;11.50;48.10
32394;DHT22;18853;45.426;9.206;2023-03-01T03:40:45;11.50;48.20
32394;DHT22;18853;45.426;9.206;2023-03-01T03:43:16;11.50;48.20
32394;DHT22;18853;45.426;9.206;2023-03-01T03:45:45;11.50;48.30
32394;DHT22;18853;45.426;9.206;2023-03-01T03:48:11;11.50;48.40
32394;DHT22;18853;45.426;9.206;2023-03-01T03:50:40;11.50;48.40
32394;DHT22;18853;45.426;9.206;2023-03-01T03:53:10;11.40;48.40
32394;DHT22;18853;45.426;9.206;2023-03-01T03:55:37;11.40;48.40
32394;DHT22;18853;45.426;9.206;2023-03-01T03:58:05;11.40;48.60
32394;DHT22;18853;45.426;9.206;2023-03-01T04:00:36;11.40;48.60
32394;DHT22;18853;45.426;9.206;2023-03-01T04:03:02;11.30;48.70
32394;DHT22;18853;45.426;9.206;2023-03-01T04:05:28;11.30;48.80
32394;DHT22;18853;45.426;9.206;2023-03-01T04:07:54;11.40;48.70
32394;DHT22;18853;45.426;9.206;2023-03-01T04:10:53;11.30;48.70
32394;DHT22;18853;45.426;9.206;2023-03-01T04:13:22;11.30;48.70
32394;DHT22;18853;45.426;9.206;2023-03-01T04:15:51;11.30;48.70
32394;DHT22;18853;45.426;9.206;2023-03-01T04:18:18;11.20;48.60
32394;DHT22;18853;45.426;9.206;2023-03-01T04:20:45;11.20;48.60
32394;DHT22;18853;45.426;9.206;2023-03-01T04:23:16;11.20;48.70
32394;DHT22;18853;45.426;9.206;2023-03-01T04:25:53;11.20;48.90
32394;DHT22;18853;45.426;9.206;2023-03-01T04:28:25;11.20;48.90
32394;DHT22;18853;45.426;9.206;2023-03-01T04:30:52;11.10;49.00
32394;DHT22;18853;45.426;9.206;2023-03-01T04:33:19;11.10;49.00
32394;DHT22;18853;45.426;9.206;2023-03-01T04:35:45;11.10;49.00
32394;DHT22;18853;45.426;9.206;2023-03-01T04:38:10;11.10;49.00
32394;DHT22;18853;45.426;9.206;2023-03-01T04:40:36;11.00;49.00
32394;DHT22;18853;45.426;9.206;2023-03-01T04:43:03;11.00;49.10
32394;DHT22;18853;45.426;9.206;2023-03-01T04:45:29;11.00;49.00
32394;DHT22;18853;45.426;9.206;2023-03-01T04:47:54;11.00;49.70
32394;DHT22;18853;45.426;9.206;2023-03-01T04:50:20;11.00;49.10
32394;DHT22;18853;45.426;9.206;2023-03-01T04:52:47;11.00;49.20
32394;DHT22;18853;45.426;9.206;2023-03-01T04:55:13;11.00;49.10
32394;DHT22;18853;45.426;9.206;2023-03-01T04:57:39;11.00;49.10
32394;DHT22;18853;45.426;9.206;2023-03-01T05:00:07;11.00;49.10
32394;DHT22;18853;45.426;9.206;2023-03-01T05:02:49;11.00;49.10
32394;DHT22;18853;45.426;9.206;2023-03-01T05:05:19;11.00;49.20
32394;DHT22;18853;45.426;9.206;2023-03-01T05:07:45;11.00;49.10
32394;DHT22;18853;45.426;9.206;2023-03-01T05:10:11;11.00;49.10
32394;DHT22;18853;45.426;9.206;2023-03-01T05:12:37;10.90;49.00
32394;DHT22;18853;45.426;9.206;2023-03-01T05:15:03;11.00;49.60
32394;DHT22;18853;45.426;9.206;2023-03-01T05:17:33;11.00;48.90
32394;DHT22;18853;45.426;9.206;2023-03-01T05:19:59;11.00;49.00
32394;DHT22;18853;45.426;9.206;2023-03-01T05:22:25;11.00;48.90
32394;DHT22;18853;45.426;9.206;2023-03-01T05:24:50;11.00;48.80
32394;DHT22;18853;45.426;9.206;2023-03-01T05:27:16;11.00;48.80
32394;DHT22;18853;45.426;9.206;2023-03-01T05:29:42;11.00;48.60
32394;DHT22;18853;45.426;9.206;2023-03-01T05:32:07;11.00;48.50
32394;DHT22;18853;45.426;9.206;2023-03-01T05:34:35;11.00;48.30
32394;DHT22;18853;45.426;9.206;2023-03-01T05:37:02;11.00;48.20
32394;DHT22;18853;45.426;9.206;2023-03-01T05:39:29;11.00;48.10
32394;DHT22;18853;45.426;9.206;2023-03-01T05:41:57;11.00;48.10
32394;DHT22;18853;45.426;9.206;2023-03-01T05:44:24;11.00;48.10
32394;DHT22;18853;45.426;9.206;2023-03-01T05:46:51;11.00;47.80
32394;DHT22;18853;45.426;9.206;2023-03-01T05:49:17;10.90;47.80
32394;DHT22;18853;45.426;9.206;2023-03-01T05:51:47;10.90;47.80
32394;DHT22;18853;45.426;9.206;2023-03-01T05:54:13;10.90;47.70
32394;DHT22;18853;45.426;9.206;2023-03-01T05:56:39;10.90;47.80
32394;DHT22;18853;45.426;9.206;2023-03-01T05:59:05;11.00;47.70
32394;DHT22;18853;45.426;9.206;2023-03-01T06:01:31;11.00;47.40
32394;DHT22;18853;45.426;9.206;2023-03-01T06:03:57;11.00;47.10
32394;DHT22;18853;45.426;9.206;2023-03-01T06:06:23;11.00;47.20
32394;DHT22;18853;45.426;9.206;2023-03-01T06:08:49;11.00;47.30
32394;DHT22;18853;45.426;9.206;2023-03-01T06:11:15;11.00;47.30
32394;DHT22;18853;45.426;9.206;2023-03-01T06:13:45;11.00;47.30
32394;DHT22;18853;45.426;9.206;2023-03-01T06:16:11;11.00;47.20
32394;DHT22;18853;45.426;9.206;2023-03-01T06:18:38;11.00;47.10
32394;DHT22;18853;45.426;9.206;2023-03-01T06:21:04;11.00;47.00
32394;DHT22;18853;45.426;9.206;2023-03-01T06:23:30;11.00;47.10
32394;DHT22;18853;45.426;9.206;2023-03-01T06:25:56;11.00;47.10
32394;DHT22;18853;45.426;9.206;2023-03-01T06:28:21;11.00;47.10
32394;DHT22;18853;45.426;9.206;2023-03-01T06:30:48;11.00;46.90
32394;DHT22;18853;45.426;9.206;2023-03-01T06:33:14;11.00;47.00
32394;DHT22;18853;45.426;9.206;2023-03-01T06:35:40;11.00;47.00
32394;DHT22;18853;45.426;9.206;2023-03-01T06:38:06;11.10;46.70
32394;DHT22;18853;45.426;9.206;2023-03-01T06:40:32;11.10;46.70
32394;DHT22;18853;45.426;9.206;2023-03-01T06:42:58;11.10;46.70
32394;DHT22;18853;45.426;9.206;2023-03-01T06:45:24;11.10;46.70
32394;DHT22;18853;45.426;9.206;2023-03-01T06:47:50;11.10;46.70
32394;DHT22;18853;45.426;9.206;2023-03-01T06:50:17;11.10;46.60
32394;DHT22;18853;45.426;9.206;2023-03-01T06:52:43;11.20;46.40
32394;DHT22;18853;45.426;9.206;2023-03-01T06:55:10;11.20;46.30
32394;DHT22;18853;45.426;9.206;2023-03-01T06:57:36;11.20;46.40
32394;DHT22;18853;45.426;9.206;2023-03-01T07:00:03;11.20;46.30
32394;DHT22;18853;45.426;9.206;2023-03-01T07:02:28;11.30;46.10
32394;DHT22;18853;45.426;9.206;2023-03-01T07:04:54;11.30;45.80
32394;DHT22;18853;45.426;9.206;2023-03-01T07:07:20;11.40;45.70
32394;DHT22;18853;45.426;9.206;2023-03-01T07:09:46;11.50;45.50
32394;DHT22;18853;45.426;9.206;2023-03-01T07:12:11;11.50;45.20
32394;DHT22;18853;45.426;9.206;2023-03-01T07:14:37;11.50;45.00
32394;DHT22;18853;45.426;9.206;2023-03-01T07:17:03;11.50;44.70
32394;DHT22;18853;45.426;9.206;2023-03-01T07:19:28;11.60;44.40
32394;DHT22;18853;45.426;9.206;2023-03-01T07:21:54;11.50;44.30
32394;DHT22;18853;45.426;9.206;2023-03-01T07:24:21;11.50;44.80
32394;DHT22;18853;45.426;9.206;2023-03-01T07:26:50;11.60;44.10
32394;DHT22;18853;45.426;9.206;2023-03-01T07:29:17;11.60;44.20
32394;DHT22;18853;45.426;9.206;2023-03-01T07:31:43;11.50;44.30
32394;DHT22;18853;45.426;9.206;2023-03-01T07:34:08;11.50;44.50
32394;DHT22;18853;45.426;9.206;2023-03-01T07:36:34;11.50;44.70
32394;DHT22;18853;45.426;9.206;2023-03-01T07:39:00;11.50;45.40
32394;DHT22;18853;45.426;9.206;2023-03-01T07:41:28;11.50;44.70
32394;DHT22;18853;45.426;9.206;2023-03-01T07:43:53;11.60;45.30
32394;DHT22;18853;45.426;9.206;2023-03-01T07:46:19;11.60;44.90
32394;DHT22;18853;45.426;9.206;2023-03-01T07:48:45;11.50;44.50
32394;DHT22;18853;45.426;9.206;2023-03-01T07:51:10;11.50;44.00
32394;DHT22;18853;45.426;9.206;2023-03-01T07:53:36;11.40;44.30
32394;DHT22;18853;45.426;9.206;2023-03-01T07:56:07;11.40;44.90
32394;DHT22;18853;45.426;9.206;2023-03-01T07:58:37;11.50;45.00
32394;DHT22;18853;45.426;9.206;2023-03-01T08:01:05;11.50;44.80
32394;DHT22;18853;45.426;9.206;2023-03-01T08:03:31;11.50;44.40
32394;DHT22;18853;45.426;9.206;2023-03-01T08:05:59;11.50;44.00
32394;DHT22;18853;45.426;9.206;2023-03-01T08:08:25;11.50;43.60
32394;DHT22;18853;45.426;9.206;2023-03-01T08:10:51;11.60;43.70
32394;DHT22;18853;45.426;9.206;2023-03-01T08:13:17;11.70;43.30
32394;DHT22;18853;45.426;9.206;2023-03-01T08:15:48;11.80;42.90
32394;DHT22;18853;45.426;9.206;2023-03-01T08:18:14;11.80;42.70
32394;DHT22;18853;45.426;9.206;2023-03-01T08:20:40;11.80;42.60
32394;DHT22;18853;45.426;9.206;2023-03-01T08:23:05;11.80;42.40
32394;DHT22;18853;45.426;9.206;2023-03-01T08:25:31;11.80;42.40
32394;DHT22;18853;45.426;9.206;2023-03-01T08:27:57;11.80;42.20
32394;DHT22;18853;45.426;9.206;2023-03-01T08:30:22;11.90;42.60
32394;DHT22;18853;45.426;9.206;2023-03-01T08:32:49;11.90;42.00
32394;DHT22;18853;45.426;9.206;2023-03-01T08:35:15;11.90;42.00
32394;DHT22;18853;45.426;9.206;2023-03-01T08:37:41;11.90;41.70
32394;DHT22;18853;45.426;9.206;2023-03-01T08:40:07;12.00;42.10
32394;DHT22;18853;45.426;9.206;2023-03-01T08:42:35;12.00;41.80
32394;DHT22;18853;45.426;9.206;2023-03-01T08:45:01;12.00;41.70
32394;DHT22;18853;45.426;9.206;2023-03-01T08:47:27;12.00;41.70
32394;DHT22;18853;45.426;9.206;2023-03-01T08:49:52;12.00;41.70
32394;DHT22;18853;45.426;9.206;2023-03-01T08:52:19;12.00;41.70
32394;DHT22;18853;45.426;9.206;2023-03-01T08:54:45;12.10;42.20
32394;DHT22;18853;45.426;9.206;2023-03-01T08:57:12;12.00;42.20
32394;DHT22;18853;45.426;9.206;2023-03-01T08:59:38;12.00;42.50
32394;DHT22;18853;45.426;9.206;2023-03-01T09:02:05;12.00;42.30
32394;DHT22;18853;45.426;9.206;2023-03-01T09:04:31;12.00;42.50
32394;DHT22;18853;45.426;9.206;2023-03-01T09:06:58;11.90;42.50
32394;DHT22;18853;45.426;9.206;2023-03-01T09:09:24;11.80;42.50
32394;DHT22;18853;45.426;9.206;2023-03-01T09:11:50;11.80;42.60
32394;DHT22;18853;45.426;9.206;2023-03-01T09:14:16;12.00;42.20
32394;DHT22;18853;45.426;9.206;2023-03-01T09:16:42;12.00;41.80
32394;DHT22;18853;45.426;9.206;2023-03-01T09:19:07;12.10;41.50
32394;DHT22;18853;45.426;9.206;2023-03-01T09:21:33;12.20;41.60
32394;DHT22;18853;45.426;9.206;2023-03-01T09:23:59;12.20;41.50
32394;DHT22;18853;45.426;9.206;2023-03-01T09:26:25;12.20;41.20
32394;DHT22;18853;45.426;9.206;2023-03-01T09:28:53;12.30;41.10
32394;DHT22;18853;45.426;9.206;2023-03-01T09:31:20;12.30;41.10
32394;DHT22;18853;45.426;9.206;2023-03-01T09:33:47;12.30;41.20
32394;DHT22;18853;45.426;9.206;2023-03-01T09:36:16;12.40;41.30
32394;DHT22;18853;45.426;9.206;2023-03-01T09:38:43;12.40;41.30
32394;DHT22;18853;45.426;9.206;2023-03-01T09:46:46;12.50;41.20
32394;DHT22;18853;45.426;9.206;2023-03-01T09:49:24;12.50;41.40
32394;DHT22;18853;45.426;9.206;2023-03-01T09:54:32;12.60;41.60
32394;DHT22;18853;45.426;9.206;2023-03-01T09:57:18;12.70;41.80
32394;DHT22;18853;45.426;9.206;2023-03-01T09:59:51;12.70;42.10
32394;DHT22;18853;45.426;9.206;2023-03-01T10:02:44;12.70;42.00
32394;DHT22;18853;45.426;9.206;2023-03-01T10:05:25;12.80;42.00
32394;DHT22;18853;45.426;9.206;2023-03-01T10:10:44;12.80;42.20
32394;DHT22;18853;45.426;9.206;2023-03-01T10:13:19;12.80;42.10
32394;DHT22;18853;45.426;9.206;2023-03-01T10:15:59;12.80;42.00
32394;DHT22;18853;45.426;9.206;2023-03-01T10:18:28;12.90;41.90
32394;DHT22;18853;45.426;9.206;2023-03-01T10:21:01;12.80;41.80
32394;DHT22;18853;45.426;9.206;2023-03-01T10:23:30;12.80;41.70
32394;DHT22;18853;45.426;9.206;2023-03-01T10:31:18;12.90;41.80
32394;DHT22;18853;45.426;9.206;2023-03-01T10:33:44;12.80;41.90
32394;DHT22;18853;45.426;9.206;2023-03-01T10:36:10;12.80;42.00
32394;DHT22;18853;45.426;9.206;2023-03-01T10:38:56;13.00;41.90
32394;DHT22;18853;45.426;9.206;2023-03-01T10:41:24;13.10;41.60
32394;DHT22;18853;45.426;9.206;2023-03-01T10:43:56;13.10;41.50
32394;DHT22;18853;45.426;9.206;2023-03-01T10:46:42;13.10;41.30
32394;DHT22;18853;45.426;9.206;2023-03-01T10:49:13;13.20;40.80
32394;DHT22;18853;45.426;9.206;2023-03-01T10:51:45;13.20;41.10
32394;DHT22;18853;45.426;9.206;2023-03-01T10:56:57;13.40;40.80
32394;DHT22;18853;45.426;9.206;2023-03-01T10:59:28;13.30;40.30
32394;DHT22;18853;45.426;9.206;2023-03-01T11:04:35;13.20;40.50
32394;DHT22;18853;45.426;9.206;2023-03-01T11:07:02;13.20;40.80
32394;DHT22;18853;45.426;9.206;2023-03-01T11:09:32;13.20;40.60
32394;DHT22;18853;45.426;9.206;2023-03-01T11:12:05;13.10;40.60
32394;DHT22;18853;45.426;9.206;2023-03-01T11:14:37;13.10;40.70
32394;DHT22;18853;45.426;9.206;2023-03-01T11:17:18;13.10;40.70
32394;DHT22;18853;45.426;9.206;2023-03-01T11:22:33;13.20;40.50
32394;DHT22;18853;45.426;9.206;2023-03-01T11:25:00;13.10;40.90
32394;DHT22;18853;45.426;9.206;2023-03-01T11:27:32;13.20;40.90
32394;DHT22;18853;45.426;9.206;2023-03-01T11:30:05;13.30;40.80
32394;DHT22;18853;45.426;9.206;2023-03-01T11:32:44;13.30;40.80
32394;DHT22;18853;45.426;9.206;2023-03-01T11:35:21;13.30;40.70
32394;DHT22;18853;45.426;9.206;2023-03-01T11:43:06;13.20;41.10
32394;DHT22;18853;45.426;9.206;2023-03-01T11:57:26;13.30;41.00
32394;DHT22;18853;45.426;9.206;2023-03-01T12:08:29;13.40;41.00
32394;DHT22;18853;45.426;9.206;2023-03-01T12:11:07;13.40;41.10
32394;DHT22;18853;45.426;9.206;2023-03-01T12:22:52;13.40;41.30
32394;DHT22;18853;45.426;9.206;2023-03-01T12:33:53;13.40;41.70
32394;DHT22;18853;45.426;9.206;2023-03-01T12:39:22;13.40;41.70
32394;DHT22;18853;45.426;9.206;2023-03-01T12:44:27;13.40;41.70
32394;DHT22;18853;45.426;9.206;2023-03-01T12:49:40;13.60;41.60
32394;DHT22;18853;45.426;9.206;2023-03-01T12:54:36;13.60;41.40
32394;DHT22;18853;45.426;9.206;2023-03-01T13:11:02;13.80;40.80
32394;DHT22;18853;45.426;9.206;2023-03-01T13:13:29;13.80;41.20
32394;DHT22;18853;45.426;9.206;2023-03-01T13:15:55;13.80;41.40
32394;DHT22;18853;45.426;9.206;2023-03-01T13:26:15;13.90;41.20
32394;DHT22;18853;45.426;9.206;2023-03-01T13:33:45;13.90;41.80
32394;DHT22;18853;45.426;9.206;2023-03-01T13:39:27;13.90;41.70
32394;DHT22;18853;45.426;9.206;2023-03-01T13:41:55;13.90;42.00
32394;DHT22;18853;45.426;9.206;2023-03-01T13:46:59;14.00;41.80
32394;DHT22;18853;45.426;9.206;2023-03-01T13:49:32;14.10;41.60
32394;DHT22;18853;45.426;9.206;2023-03-01T13:52:02;14.10;41.40
32394;DHT22;18853;45.426;9.206;2023-03-01T13:54:32;14.00;41.30
32394;DHT22;18853;45.426;9.206;2023-03-01T13:57:01;14.10;41.20
32394;DHT22;18853;45.426;9.206;2023-03-01T13:59:27;14.10;41.80
32394;DHT22;18853;45.426;9.206;2023-03-01T14:02:00;14.10;41.20
32394;DHT22;18853;45.426;9.206;2023-03-01T14:04:31;14.10;41.20
32394;DHT22;18853;45.426;9.206;2023-03-01T14:07:21;14.10;41.10
32394;DHT22;18853;45.426;9.206;2023-03-01T14:09:51;14.10;41.10
32394;DHT22;18853;45.426;9.206;2023-03-01T14:15:05;14.20;41.00
32394;DHT22;18853;45.426;9.206;2023-03-01T14:17:46;14.10;41.10
32394;DHT22;18853;45.426;9.206;2023-03-01T14:20:21;14.20;41.00
32394;DHT22;18853;45.426;9.206;2023-03-01T14:22:50;14.20;41.40
32394;DHT22;18853;45.426;9.206;2023-03-01T14:27:56;14.20;41.60
32394;DHT22;18853;45.426;9.206;2023-03-01T14:30:25;14.20;41.60
32394;DHT22;18853;45.426;9.206;2023-03-01T14:32:58;14.20;41.90
32394;DHT22;18853;45.426;9.206;2023-03-01T14:35:31;14.20;42.20
32394;DHT22;18853;45.426;9.206;2023-03-01T14:37:57;14.20;42.20
32394;DHT22;18853;45.426;9.206;2023-03-01T14:42:51;14.20;42.50
32394;DHT22;18853;45.426;9.206;2023-03-01T14:45:18;14.20;42.30
32394;DHT22;18853;45.426;9.206;2023-03-01T14:47:44;14.20;42.00
32394;DHT22;18853;45.426;9.206;2023-03-01T14:50:26;14.20;41.90
32394;DHT22;18853;45.426;9.206;2023-03-01T14:52:55;14.10;41.80
32394;DHT22;18853;45.426;9.206;2023-03-01T14:55:33;14.20;41.90
32394;DHT22;18853;45.426;9.206;2023-03-01T14:58:03;14.20;41.80
32394;DHT22;18853;45.426;9.206;2023-03-01T15:00:30;14.20;41.70
32394;DHT22;18853;45.426;9.206;2023-03-01T15:03:01;14.30;41.80
32394;DHT22;18853;45.426;9.206;2023-03-01T15:05:33;14.20;41.60
32394;DHT22;18853;45.426;9.206;2023-03-01T15:08:00;14.30;41.50
32394;DHT22;18853;45.426;9.206;2023-03-01T15:10:29;14.20;41.40
32394;DHT22;18853;45.426;9.206;2023-03-01T15:12:56;14.20;41.30
32394;DHT22;18853;45.426;9.206;2023-03-01T15:15:36;14.20;41.30
32394;DHT22;18853;45.426;9.206;2023-03-01T15:18:26;14.30;41.20
32394;DHT22;18853;45.426;9.206;2023-03-01T15:20:53;14.30;41.10
32394;DHT22;18853;45.426;9.206;2023-03-01T15:25:49;14.20;41.30
32394;DHT22;18853;45.426;9.206;2023-03-01T15:28:29;14.20;41.40
32394;DHT22;18853;45.426;9.206;2023-03-01T15:30:59;14.20;41.40
32394;DHT22;18853;45.426;9.206;2023-03-01T15:33:28;14.20;41.50
32394;DHT22;18853;45.426;9.206;2023-03-01T15:35:58;14.20;41.50
32394;DHT22;18853;45.426;9.206;2023-03-01T15:38:35;14.20;41.50
32394;DHT22;18853;45.426;9.206;2023-03-01T15:41:05;14.20;41.50
32394;DHT22;18853;45.426;9.206;2023-03-01T15:43:46;14.30;41.50
32394;DHT22;18853;45.426;9.206;2023-03-01T15:46:33;14.20;41.40
32394;DHT22;18853;45.426;9.206;2023-03-01T15:50:04;14.30;41.30
32394;DHT22;18853;45.426;9.206;2023-03-01T15:51:58;14.20;41.50
32394;DHT22;18853;45.426;9.206;2023-03-01T15:54:25;14.20;41.60
32394;DHT22;18853;45.426;9.206;2023-03-01T15:56:52;14.20;41.50
32394;DHT22;18853;45.426;9.206;2023-03-01T15:59:18;14.20;41.50
32394;DHT22;18853;45.426;9.206;2023-03-01T16:01:44;14.20;41.60
32394;DHT22;18853;45.426;9.206;2023-03-01T16:04:11;14.20;41.60
32394;DHT22;18853;45.426;9.206;2023-03-01T16:06:46;14.20;41.60
32394;DHT22;18853;45.426;9.206;2023-03-01T16:09:23;14.20;41.60
32394;DHT22;18853;45.426;9.206;2023-03-01T16:11:50;14.20;41.50
32394;DHT22;18853;45.426;9.206;2023-03-01T16:14:16;14.30;41.40
32394;DHT22;18853;45.426;9.206;2023-03-01T16:16:43;14.30;41.30
32394;DHT22;18853;45.426;9.206;2023-03-01T16:19:09;14.20;41.30
32394;DHT22;18853;45.426;9.206;2023-03-01T16:21:35;14.20;42.00
32394;DHT22;18853;45.426;9.206;2023-03-01T16:24:01;14.20;41.60
32394;DHT22;18853;45.426;9.206;2023-03-01T16:26:27;14.20;41.60
32394;DHT22;18853;45.426;9.206;2023-03-01T16:28:55;14.20;41.40
32394;DHT22;18853;45.426;9.206;2023-03-01T16:31:23;14.20;41.50
32394;DHT22;18853;45.426;9.206;2023-03-01T16:33:52;14.20;41.90
32394;DHT22;18853;45.426;9.206;2023-03-01T16:36:20;14.20;42.00
32394;DHT22;18853;45.426;9.206;2023-03-01T16:38:49;14.10;42.70
32394;DHT22;18853;45.426;9.206;2023-03-01T16:41:16;14.10;42.50
32394;DHT22;18853;45.426;9.206;2023-03-01T16:43:42;14.10;42.60
32394;DHT22;18853;45.426;9.206;2023-03-01T16:46:17;14.10;42.70
32394;DHT22;18853;45.426;9.206;2023-03-01T16:48:44;14.10;42.70
32394;DHT22;18853;45.426;9.206;2023-03-01T16:51:10;14.10;42.90
32394;DHT22;18853;45.426;9.206;2023-03-01T16:53:37;14.00;43.80
32394;DHT22;18853;45.426;9.206;2023-03-01T16:56:05;14.00;44.70
32394;DHT22;18853;45.426;9.206;2023-03-01T16:58:32;13.80;44.60
32394;DHT22;18853;45.426;9.206;2023-03-01T17:01:04;13.70;45.90
32394;DHT22;18853;45.426;9.206;2023-03-01T17:03:30;13.50;46.80
32394;DHT22;18853;45.426;9.206;2023-03-01T17:05:56;13.50;46.90
32394;DHT22;18853;45.426;9.206;2023-03-01T17:08:21;13.40;47.20
32394;DHT22;18853;45.426;9.206;2023-03-01T17:10:47;13.40;47.90
32394;DHT22;18853;45.426;9.206;2023-03-01T17:13:13;13.30;48.80
32394;DHT22;18853;45.426;9.206;2023-03-01T17:15:42;13.30;49.60
32394;DHT22;18853;45.426;9.206;2023-03-01T17:18:08;13.30;49.40
32394;DHT22;18853;45.426;9.206;2023-03-01T17:20:35;13.30;50.00
32394;DHT22;18853;45.426;9.206;2023-03-01T17:23:01;13.20;50.80
32394;DHT22;18853;45.426;9.206;2023-03-01T17:25:27;13.20;51.10
32394;DHT22;18853;45.426;9.206;2023-03-01T17:27:53;13.10;51.60
32394;DHT22;18853;45.426;9.206;2023-03-01T17:30:19;13.10;52.20
32394;DHT22;18853;45.426;9.206;2023-03-01T17:32:44;13.10;52.70
32394;DHT22;18853;45.426;9.206;2023-03-01T17:35:10;13.10;53.10
32394;DHT22;18853;45.426;9.206;2023-03-01T17:37:37;13.10;53.60
32394;DHT22;18853;45.426;9.206;2023-03-01T17:40:04;13.00;53.60
32394;DHT22;18853;45.426;9.206;2023-03-01T17:42:30;13.00;54.00
32394;DHT22;18853;45.426;9.206;2023-03-01T17:44:56;12.90;53.50
32394;DHT22;18853;45.426;9.206;2023-03-01T17:47:22;13.00;53.80
32394;DHT22;18853;45.426;9.206;2023-03-01T17:49:47;12.90;53.60